Lambert, Arkansas
Current Conditions -  °F | °C
As of 11:53 PM on Saturday 20 Dec 2014 (Local Time) from KHOT Reporting Station
Clear Clear  
Wind Chill: 39°   Ceiling: Unl
Heat Index: 39°   Visibility: 9mi
Dew Point: 35°   Wind: 3mph
Humidity: 86%   Direction: 100°E
Pressure: 30.23"   Gusts: NA
Location:  34.3335°N, 93.1952°W
Report Text: KHOT 210553Z AUTO 10003KT 9SM CLR 04/02 A3023 RMK AO2 SLP236 T00390017 10094 20039 401060039 58001
Loading
Personal Weather Stations






























Interactive Weather Map New forecast layout! Learn more

10-Day Weather Forecast

Advertisements
Track Severe Weather on mobile